sensor_id;sensor_type;location;lat;lon;timestamp;pressure;altitude;pressure_sealevel;temperature;humidity
40285;BME280;25997;50.214;19.354;2023-02-20T00:01:25;98365.81;;;0.40;60.25
40285;BME280;25997;50.214;19.354;2023-02-20T00:04:31;98369.06;;;0.38;60.35
40285;BME280;25997;50.214;19.354;2023-02-20T00:07:39;98366.81;;;0.54;60.05
40285;BME280;25997;50.214;19.354;2023-02-20T00:10:45;98365.59;;;0.49;60.13
40285;BME280;25997;50.214;19.354;2023-02-20T00:13:52;98355.72;;;0.43;60.50
40285;BME280;25997;50.214;19.354;2023-02-20T00:16:58;98358.28;;;0.43;60.53
40285;BME280;25997;50.214;19.354;2023-02-20T00:20:05;98342.56;;;0.40;60.90
40285;BME280;25997;50.214;19.354;2023-02-20T00:23:13;98351.50;;;0.44;60.50
40285;BME280;25997;50.214;19.354;2023-02-20T00:26:19;98345.84;;;0.38;60.57
40285;BME280;25997;50.214;19.354;2023-02-20T00:29:26;98347.19;;;0.44;60.55
40285;BME280;25997;50.214;19.354;2023-02-20T00:32:33;98339.31;;;0.43;60.40
40285;BME280;25997;50.214;19.354;2023-02-20T00:35:39;98347.19;;;0.44;60.26
40285;BME280;25997;50.214;19.354;2023-02-20T00:38:47;98336.72;;;0.55;59.95
40285;BME280;25997;50.214;19.354;2023-02-20T00:41:53;98333.09;;;0.64;60.06
40285;BME280;25997;50.214;19.354;2023-02-20T00:44:59;98341.41;;;0.60;59.94
40285;BME280;25997;50.214;19.354;2023-02-20T00:48:07;98338.81;;;0.60;60.30
40285;BME280;25997;50.214;19.354;2023-02-20T00:51:12;98325.50;;;0.54;60.19
40285;BME280;25997;50.214;19.354;2023-02-20T00:54:23;98339.22;;;0.53;60.04
40285;BME280;25997;50.214;19.354;2023-02-20T00:57:27;98348.56;;;0.51;60.25
40285;BME280;25997;50.214;19.354;2023-02-20T01:00:35;98338.09;;;0.49;60.41
40285;BME280;25997;50.214;19.354;2023-02-20T01:03:42;98342.03;;;0.44;60.47
40285;BME280;25997;50.214;19.354;2023-02-20T01:06:48;98350.91;;;0.36;60.66
40285;BME280;25997;50.214;19.354;2023-02-20T01:09:56;98347.41;;;0.36;60.71
40285;BME280;25997;50.214;19.354;2023-02-20T01:13:02;98343.97;;;0.35;60.75
40285;BME280;25997;50.214;19.354;2023-02-20T01:16:08;98349.44;;;0.40;60.77
40285;BME280;25997;50.214;19.354;2023-02-20T01:19:14;98348.75;;;0.42;60.74
40285;BME280;25997;50.214;19.354;2023-02-20T01:22:20;98342.47;;;0.50;60.62
40285;BME280;25997;50.214;19.354;2023-02-20T01:25:28;98338.22;;;0.51;60.52
40285;BME280;25997;50.214;19.354;2023-02-20T01:28:34;98344.28;;;0.40;60.61
40285;BME280;25997;50.214;19.354;2023-02-20T01:31:47;98344.41;;;0.30;60.71
40285;BME280;25997;50.214;19.354;2023-02-20T01:34:52;98338.91;;;0.48;60.76
40285;BME280;25997;50.214;19.354;2023-02-20T01:37:58;98342.47;;;0.50;60.58
40285;BME280;25997;50.214;19.354;2023-02-20T01:41:11;98337.53;;;0.42;60.51
40285;BME280;25997;50.214;19.354;2023-02-20T01:44:20;98336.91;;;0.33;61.22
40285;BME280;25997;50.214;19.354;2023-02-20T01:47:27;98331.25;;;0.38;61.13
40285;BME280;25997;50.214;19.354;2023-02-20T01:50:39;98330.34;;;0.38;60.97
40285;BME280;25997;50.214;19.354;2023-02-20T01:53:46;98333.06;;;0.39;60.95
40285;BME280;25997;50.214;19.354;2023-02-20T01:56:54;98329.78;;;0.42;60.96
40285;BME280;25997;50.214;19.354;2023-02-20T02:00:06;98341.84;;;0.30;61.43
40285;BME280;25997;50.214;19.354;2023-02-20T02:03:22;98324.09;;;0.34;61.14
40285;BME280;25997;50.214;19.354;2023-02-20T02:06:30;98321.94;;;0.29;61.42
40285;BME280;25997;50.214;19.354;2023-02-20T02:09:52;98307.03;;;0.25;61.61
40285;BME280;25997;50.214;19.354;2023-02-20T02:13:03;98297.03;;;0.29;61.35
40285;BME280;25997;50.214;19.354;2023-02-20T02:16:22;98276.50;;;0.31;61.32
40285;BME280;25997;50.214;19.354;2023-02-20T02:19:53;98272.44;;;0.34;60.82
40285;BME280;25997;50.214;19.354;2023-02-20T02:30:50;98271.84;;;0.50;60.40
40285;BME280;25997;50.214;19.354;2023-02-20T02:37:57;98269.66;;;0.56;60.30
40285;BME280;25997;50.214;19.354;2023-02-20T02:41:10;98259.03;;;0.51;60.54
40285;BME280;25997;50.214;19.354;2023-02-20T02:44:29;98249.53;;;0.64;60.07
40285;BME280;25997;50.214;19.354;2023-02-20T02:47:40;98252.81;;;0.61;60.19
40285;BME280;25997;50.214;19.354;2023-02-20T02:50:52;98253.00;;;0.51;60.40
40285;BME280;25997;50.214;19.354;2023-02-20T02:54:09;98254.34;;;0.46;60.43
40285;BME280;25997;50.214;19.354;2023-02-20T02:57:20;98268.38;;;0.38;60.66
40285;BME280;25997;50.214;19.354;2023-02-20T03:00:28;98257.22;;;0.26;61.23
40285;BME280;25997;50.214;19.354;2023-02-20T03:03:40;98264.47;;;0.31;61.04
40285;BME280;25997;50.214;19.354;2023-02-20T03:06:50;98263.06;;;0.23;61.00
40285;BME280;25997;50.214;19.354;2023-02-20T03:10:03;98250.16;;;0.23;60.88
40285;BME280;25997;50.214;19.354;2023-02-20T03:13:12;98249.84;;;0.19;61.31
40285;BME280;25997;50.214;19.354;2023-02-20T03:16:22;98246.16;;;0.15;61.18
40285;BME280;25997;50.214;19.354;2023-02-20T03:19:33;98229.09;;;0.17;61.33
40285;BME280;25997;50.214;19.354;2023-02-20T03:22:44;98213.47;;;0.16;61.11
40285;BME280;25997;50.214;19.354;2023-02-20T03:25:56;98213.16;;;0.11;61.26
40285;BME280;25997;50.214;19.354;2023-02-20T03:29:06;98215.38;;;-0.06;61.93
40285;BME280;25997;50.214;19.354;2023-02-20T03:32:15;98210.78;;;-0.10;61.97
40285;BME280;25997;50.214;19.354;2023-02-20T03:35:39;98221.03;;;-0.12;62.04
40285;BME280;25997;50.214;19.354;2023-02-20T03:39:05;98224.59;;;-0.10;61.80
40285;BME280;25997;50.214;19.354;2023-02-20T03:42:34;98229.19;;;-0.06;61.88
40285;BME280;25997;50.214;19.354;2023-02-20T03:46:08;98228.28;;;-0.06;61.86
40285;BME280;25997;50.214;19.354;2023-02-20T03:49:20;98233.25;;;-0.09;62.04
40285;BME280;25997;50.214;19.354;2023-02-20T03:52:46;98234.69;;;-0.13;62.00
40285;BME280;25997;50.214;19.354;2023-02-20T03:55:55;98232.91;;;-0.14;62.27
40285;BME280;25997;50.214;19.354;2023-02-20T03:59:10;98222.78;;;-0.11;62.07
40285;BME280;25997;50.214;19.354;2023-02-20T04:02:23;98217.53;;;-0.12;62.00
40285;BME280;25997;50.214;19.354;2023-02-20T04:05:32;98218.13;;;-0.16;62.28
40285;BME280;25997;50.214;19.354;2023-02-20T04:08:47;98209.50;;;-0.29;62.24
40285;BME280;25997;50.214;19.354;2023-02-20T04:11:58;98211.66;;;-0.35;62.75
40285;BME280;25997;50.214;19.354;2023-02-20T04:15:09;98215.50;;;-0.41;62.73
40285;BME280;25997;50.214;19.354;2023-02-20T04:18:18;98213.34;;;-0.47;62.63
40285;BME280;25997;50.214;19.354;2023-02-20T04:21:31;98212.59;;;-0.57;63.01
40285;BME280;25997;50.214;19.354;2023-02-20T04:24:42;98215.53;;;-0.64;63.02
40285;BME280;25997;50.214;19.354;2023-02-20T04:27:48;98208.59;;;-0.65;63.16
40285;BME280;25997;50.214;19.354;2023-02-20T04:30:57;98205.69;;;-0.70;63.31
40285;BME280;25997;50.214;19.354;2023-02-20T04:34:04;98203.13;;;-0.81;63.88
40285;BME280;25997;50.214;19.354;2023-02-20T04:37:12;98195.97;;;-0.85;64.01
40285;BME280;25997;50.214;19.354;2023-02-20T04:40:22;98181.84;;;-0.90;63.96
40285;BME280;25997;50.214;19.354;2023-02-20T04:43:27;98185.09;;;-0.93;64.11
40285;BME280;25997;50.214;19.354;2023-02-20T04:46:36;98180.84;;;-0.93;63.74
40285;BME280;25997;50.214;19.354;2023-02-20T04:49:42;98180.59;;;-0.96;63.92
40285;BME280;25997;50.214;19.354;2023-02-20T04:52:54;98184.56;;;-1.01;64.08
40285;BME280;25997;50.214;19.354;2023-02-20T04:56:03;98179.50;;;-0.99;64.03
40285;BME280;25997;50.214;19.354;2023-02-20T04:59:13;98170.53;;;-1.04;64.19
40285;BME280;25997;50.214;19.354;2023-02-20T05:02:20;98165.53;;;-1.03;64.31
40285;BME280;25997;50.214;19.354;2023-02-20T05:05:28;98168.63;;;-0.95;63.93
40285;BME280;25997;50.214;19.354;2023-02-20T05:08:33;98165.38;;;-0.93;63.66
40285;BME280;25997;50.214;19.354;2023-02-20T05:11:40;98163.38;;;-0.97;63.90
40285;BME280;25997;50.214;19.354;2023-02-20T05:14:45;98161.88;;;-0.81;63.57
40285;BME280;25997;50.214;19.354;2023-02-20T05:17:53;98161.56;;;-0.86;63.55
40285;BME280;25997;50.214;19.354;2023-02-20T05:20:58;98161.38;;;-0.89;63.93
40285;BME280;25997;50.214;19.354;2023-02-20T05:24:20;98152.91;;;-0.75;63.51
40285;BME280;25997;50.214;19.354;2023-02-20T05:27:26;98154.66;;;-0.62;63.39
40285;BME280;25997;50.214;19.354;2023-02-20T05:30:33;98163.44;;;-0.60;62.88
40285;BME280;25997;50.214;19.354;2023-02-20T05:33:41;98145.56;;;-0.57;62.72
40285;BME280;25997;50.214;19.354;2023-02-20T05:36:47;98145.66;;;-0.44;62.34
40285;BME280;25997;50.214;19.354;2023-02-20T05:39:53;98143.06;;;-0.44;62.65
40285;BME280;25997;50.214;19.354;2023-02-20T05:43:00;98141.34;;;-0.32;61.79
40285;BME280;25997;50.214;19.354;2023-02-20T05:46:06;98150.66;;;-0.34;61.79
40285;BME280;25997;50.214;19.354;2023-02-20T05:49:16;98167.03;;;-0.34;61.12
40285;BME280;25997;50.214;19.354;2023-02-20T05:52:22;98161.59;;;-0.13;61.08
40285;BME280;25997;50.214;19.354;2023-02-20T05:55:27;98160.09;;;-0.10;60.58
40285;BME280;25997;50.214;19.354;2023-02-20T05:58:34;98170.00;;;-0.16;60.12
40285;BME280;25997;50.214;19.354;2023-02-20T06:01:40;98160.03;;;-0.23;59.87
40285;BME280;25997;50.214;19.354;2023-02-20T06:04:49;98167.28;;;-0.18;59.66
40285;BME280;25997;50.214;19.354;2023-02-20T06:07:55;98172.72;;;-0.01;60.01
40285;BME280;25997;50.214;19.354;2023-02-20T06:11:02;98177.75;;;-0.16;59.41
40285;BME280;25997;50.214;19.354;2023-02-20T06:14:08;98167.88;;;-0.22;59.51
40285;BME280;25997;50.214;19.354;2023-02-20T06:17:13;98172.63;;;-0.03;59.69
40285;BME280;25997;50.214;19.354;2023-02-20T06:20:21;98179.38;;;-0.05;59.27
40285;BME280;25997;50.214;19.354;2023-02-20T06:23:27;98187.75;;;0.04;59.32
40285;BME280;25997;50.214;19.354;2023-02-20T06:26:39;98192.63;;;0.13;59.23
40285;BME280;25997;50.214;19.354;2023-02-20T06:29:46;98191.97;;;0.15;58.98
40285;BME280;25997;50.214;19.354;2023-02-20T06:32:52;98187.97;;;0.20;59.02
40285;BME280;25997;50.214;19.354;2023-02-20T06:36:00;98175.75;;;0.18;58.96
40285;BME280;25997;50.214;19.354;2023-02-20T06:39:08;98174.97;;;0.19;59.10
40285;BME280;25997;50.214;19.354;2023-02-20T06:42:13;98172.72;;;0.23;59.15
40285;BME280;25997;50.214;19.354;2023-02-20T06:45:20;98164.19;;;0.24;59.15
40285;BME280;25997;50.214;19.354;2023-02-20T06:48:26;98150.78;;;0.30;59.06
40285;BME280;25997;50.214;19.354;2023-02-20T06:51:35;98156.84;;;0.30;59.35
40285;BME280;25997;50.214;19.354;2023-02-20T06:54:40;98147.81;;;0.37;59.43
40285;BME280;25997;50.214;19.354;2023-02-20T06:57:48;98139.28;;;0.38;59.32
40285;BME280;25997;50.214;19.354;2023-02-20T07:00:54;98132.13;;;0.34;59.08
40285;BME280;25997;50.214;19.354;2023-02-20T07:04:02;98142.50;;;0.60;58.64
40285;BME280;25997;50.214;19.354;2023-02-20T07:07:10;98156.88;;;0.43;58.63
40285;BME280;25997;50.214;19.354;2023-02-20T07:10:17;98154.34;;;0.32;58.79
40285;BME280;25997;50.214;19.354;2023-02-20T07:13:23;98141.16;;;0.40;58.93
40285;BME280;25997;50.214;19.354;2023-02-20T07:16:32;98136.13;;;0.42;59.18
40285;BME280;25997;50.214;19.354;2023-02-20T07:19:37;98134.88;;;0.62;59.10
40285;BME280;25997;50.214;19.354;2023-02-20T07:22:51;98128.44;;;0.55;58.77
40285;BME280;25997;50.214;19.354;2023-02-20T07:25:57;98128.72;;;0.73;58.74
40285;BME280;25997;50.214;19.354;2023-02-20T07:29:04;98124.25;;;0.83;58.71
40285;BME280;25997;50.214;19.354;2023-02-20T07:32:10;98121.56;;;0.82;58.85
40285;BME280;25997;50.214;19.354;2023-02-20T07:35:17;98114.31;;;0.76;59.07
40285;BME280;25997;50.214;19.354;2023-02-20T07:38:25;98111.00;;;0.92;58.78
40285;BME280;25997;50.214;19.354;2023-02-20T07:41:32;98111.41;;;0.85;58.49
40285;BME280;25997;50.214;19.354;2023-02-20T07:44:42;98107.81;;;1.22;58.23
40285;BME280;25997;50.214;19.354;2023-02-20T07:47:49;98101.53;;;1.18;58.21
40285;BME280;25997;50.214;19.354;2023-02-20T07:50:54;98100.03;;;1.35;58.15
40285;BME280;25997;50.214;19.354;2023-02-20T07:54:01;98096.38;;;1.18;57.96
40285;BME280;25997;50.214;19.354;2023-02-20T07:57:08;98082.00;;;1.37;58.13
40285;BME280;25997;50.214;19.354;2023-02-20T08:00:15;98064.56;;;1.19;58.18
40285;BME280;25997;50.214;19.354;2023-02-20T08:03:22;98060.25;;;1.33;58.50
40285;BME280;25997;50.214;19.354;2023-02-20T08:06:27;98067.78;;;1.58;58.43
40285;BME280;25997;50.214;19.354;2023-02-20T08:09:37;98069.25;;;1.67;58.19
40285;BME280;25997;50.214;19.354;2023-02-20T08:12:42;98077.25;;;1.99;57.67
40285;BME280;25997;50.214;19.354;2023-02-20T08:15:47;98094.75;;;2.04;57.87
40285;BME280;25997;50.214;19.354;2023-02-20T08:18:55;98090.75;;;2.09;57.98
40285;BME280;25997;50.214;19.354;2023-02-20T08:22:00;98068.22;;;2.22;57.62
40285;BME280;25997;50.214;19.354;2023-02-20T08:25:10;98089.22;;;2.12;57.98
40285;BME280;25997;50.214;19.354;2023-02-20T08:28:16;98083.25;;;2.13;58.19
40285;BME280;25997;50.214;19.354;2023-02-20T08:31:23;98091.72;;;2.11;58.42
40285;BME280;25997;50.214;19.354;2023-02-20T08:34:30;98064.75;;;2.07;58.51
40285;BME280;25997;50.214;19.354;2023-02-20T08:37:36;98060.47;;;1.93;58.78
40285;BME280;25997;50.214;19.354;2023-02-20T08:40:45;98053.28;;;1.89;59.02
40285;BME280;25997;50.214;19.354;2023-02-20T08:43:51;98063.13;;;2.09;58.91
40285;BME280;25997;50.214;19.354;2023-02-20T08:46:56;98078.50;;;2.21;58.74
40285;BME280;25997;50.214;19.354;2023-02-20T08:50:04;98064.50;;;2.17;58.75
40285;BME280;25997;50.214;19.354;2023-02-20T08:53:11;98051.25;;;2.27;58.61
40285;BME280;25997;50.214;19.354;2023-02-20T08:56:20;98064.38;;;2.16;58.66
40285;BME280;25997;50.214;19.354;2023-02-20T08:59:30;98039.03;;;2.39;58.67
40285;BME280;25997;50.214;19.354;2023-02-20T09:02:36;98026.16;;;2.41;58.35
40285;BME280;25997;50.214;19.354;2023-02-20T09:05:42;98018.84;;;2.34;58.71
40285;BME280;25997;50.214;19.354;2023-02-20T09:08:48;97997.78;;;2.73;58.42
40285;BME280;25997;50.214;19.354;2023-02-20T09:11:55;98006.41;;;2.57;58.36
40285;BME280;25997;50.214;19.354;2023-02-20T09:15:00;98004.47;;;2.69;58.36
40285;BME280;25997;50.214;19.354;2023-02-20T09:18:06;97995.47;;;2.94;57.84
40285;BME280;25997;50.214;19.354;2023-02-20T09:21:15;97993.25;;;2.85;58.09
40285;BME280;25997;50.214;19.354;2023-02-20T09:24:22;97997.72;;;2.57;58.75
40285;BME280;25997;50.214;19.354;2023-02-20T09:27:30;98003.81;;;2.73;58.65
40285;BME280;25997;50.214;19.354;2023-02-20T09:30:36;98003.25;;;2.94;58.46
40285;BME280;25997;50.214;19.354;2023-02-20T09:33:44;97977.56;;;2.98;58.27
40285;BME280;25997;50.214;19.354;2023-02-20T09:36:51;97981.72;;;2.95;58.44
40285;BME280;25997;50.214;19.354;2023-02-20T09:39:57;97962.34;;;2.88;58.51
40285;BME280;25997;50.214;19.354;2023-02-20T09:43:16;97956.50;;;2.92;58.08
40285;BME280;25997;50.214;19.354;2023-02-20T09:46:26;97957.81;;;3.16;58.41
40285;BME280;25997;50.214;19.354;2023-02-20T09:49:34;97946.41;;;3.13;58.15
40285;BME280;25997;50.214;19.354;2023-02-20T09:52:43;97941.78;;;3.23;57.87
40285;BME280;25997;50.214;19.354;2023-02-20T09:55:51;97946.28;;;3.43;57.30
40285;BME280;25997;50.214;19.354;2023-02-20T09:59:04;97938.94;;;3.35;57.45
40285;BME280;25997;50.214;19.354;2023-02-20T10:02:16;97949.72;;;3.10;57.88
40285;BME280;25997;50.214;19.354;2023-02-20T10:05:24;97946.16;;;3.08;58.47
40285;BME280;25997;50.214;19.354;2023-02-20T10:08:32;97946.72;;;3.03;58.82
40285;BME280;25997;50.214;19.354;2023-02-20T10:11:59;97935.44;;;2.86;59.64
40285;BME280;25997;50.214;19.354;2023-02-20T10:15:23;97910.56;;;2.90;60.11
40285;BME280;25997;50.214;19.354;2023-02-20T10:18:39;97905.56;;;2.93;59.83
40285;BME280;25997;50.214;19.354;2023-02-20T10:21:53;97913.84;;;2.71;60.57
40285;BME280;25997;50.214;19.354;2023-02-20T10:25:08;97909.06;;;2.79;60.71
40285;BME280;25997;50.214;19.354;2023-02-20T10:28:18;97912.44;;;2.92;60.42
40285;BME280;25997;50.214;19.354;2023-02-20T10:31:32;97891.59;;;3.07;60.30
40285;BME280;25997;50.214;19.354;2023-02-20T10:34:43;97887.03;;;3.35;59.49
40285;BME280;25997;50.214;19.354;2023-02-20T10:37:54;97848.00;;;3.67;59.24
40285;BME280;25997;50.214;19.354;2023-02-20T10:41:04;97844.19;;;3.43;59.00
40285;BME280;25997;50.214;19.354;2023-02-20T10:44:18;97860.19;;;3.34;59.50
40285;BME280;25997;50.214;19.354;2023-02-20T10:47:32;97846.25;;;3.66;59.09
40285;BME280;25997;50.214;19.354;2023-02-20T10:50:49;97829.72;;;3.64;59.11
40285;BME280;25997;50.214;19.354;2023-02-20T10:54:00;97841.56;;;3.59;59.04
40285;BME280;25997;50.214;19.354;2023-02-20T10:57:12;97818.03;;;3.91;58.79
40285;BME280;25997;50.214;19.354;2023-02-20T11:00:24;97811.75;;;4.04;58.59
40285;BME280;25997;50.214;19.354;2023-02-20T11:08:19;97797.63;;;4.36;58.35
40285;BME280;25997;50.214;19.354;2023-02-20T11:11:30;97777.00;;;4.39;58.21
40285;BME280;25997;50.214;19.354;2023-02-20T11:14:43;97788.59;;;4.28;58.19
40285;BME280;25997;50.214;19.354;2023-02-20T11:17:52;97780.16;;;4.51;58.38
40285;BME280;25997;50.214;19.354;2023-02-20T11:20:58;97781.97;;;4.34;58.44
40285;BME280;25997;50.214;19.354;2023-02-20T11:24:31;97765.19;;;4.64;57.65
40285;BME280;25997;50.214;19.354;2023-02-20T11:27:37;97785.91;;;4.44;57.94
40285;BME280;25997;50.214;19.354;2023-02-20T11:30:44;97776.78;;;4.34;58.41
40285;BME280;25997;50.214;19.354;2023-02-20T11:33:54;97761.63;;;4.81;57.57
40285;BME280;25997;50.214;19.354;2023-02-20T11:37:04;97740.88;;;4.83;57.60
40285;BME280;25997;50.214;19.354;2023-02-20T11:40:20;97748.66;;;4.45;58.49
40285;BME280;25997;50.214;19.354;2023-02-20T11:43:29;97723.19;;;4.74;58.52
40285;BME280;25997;50.214;19.354;2023-02-20T11:46:37;97735.81;;;4.86;58.22
40285;BME280;25997;50.214;19.354;2023-02-20T11:49:44;97724.13;;;4.76;58.11
40285;BME280;25997;50.214;19.354;2023-02-20T11:52:57;97701.16;;;4.87;58.45
40285;BME280;25997;50.214;19.354;2023-02-20T11:56:13;97683.38;;;4.75;58.90
40285;BME280;25997;50.214;19.354;2023-02-20T11:59:28;97669.75;;;4.62;59.24
40285;BME280;25997;50.214;19.354;2023-02-20T12:02:34;97664.09;;;4.91;59.00
40285;BME280;25997;50.214;19.354;2023-02-20T12:05:42;97662.31;;;5.11;58.82
40285;BME280;25997;50.214;19.354;2023-02-20T12:08:51;97676.78;;;5.04;58.64
40285;BME280;25997;50.214;19.354;2023-02-20T12:12:01;97630.75;;;5.03;59.06
40285;BME280;25997;50.214;19.354;2023-02-20T12:15:12;97614.34;;;5.04;59.12
40285;BME280;25997;50.214;19.354;2023-02-20T12:18:26;97672.31;;;5.02;59.17
40285;BME280;25997;50.214;19.354;2023-02-20T12:21:43;97618.25;;;5.15;59.15
40285;BME280;25997;50.214;19.354;2023-02-20T12:25:06;97637.25;;;5.35;59.06
40285;BME280;25997;50.214;19.354;2023-02-20T12:28:24;97650.34;;;5.16;59.56
40285;BME280;25997;50.214;19.354;2023-02-20T12:31:46;97646.59;;;5.30;59.45
40285;BME280;25997;50.214;19.354;2023-02-20T12:35:23;97651.28;;;5.18;59.48
40285;BME280;25997;50.214;19.354;2023-02-20T12:38:39;97616.53;;;5.38;59.52
40285;BME280;25997;50.214;19.354;2023-02-20T12:41:58;97589.03;;;5.44;59.25
40285;BME280;25997;50.214;19.354;2023-02-20T12:45:17;97579.13;;;5.58;59.18
40285;BME280;25997;50.214;19.354;2023-02-20T12:48:30;97586.50;;;5.46;59.31
40285;BME280;25997;50.214;19.354;2023-02-20T12:51:47;97598.66;;;5.47;59.23
40285;BME280;25997;50.214;19.354;2023-02-20T12:54:58;97564.75;;;5.91;58.46
40285;BME280;25997;50.214;19.354;2023-02-20T12:58:15;97571.72;;;5.91;57.89
40285;BME280;25997;50.214;19.354;2023-02-20T13:01:27;97570.13;;;5.72;58.09
40285;BME280;25997;50.214;19.354;2023-02-20T13:04:41;97543.56;;;5.82;57.95
40285;BME280;25997;50.214;19.354;2023-02-20T13:07:51;97565.22;;;6.03;57.39
40285;BME280;25997;50.214;19.354;2023-02-20T13:11:00;97553.50;;;6.40;57.12
40285;BME280;25997;50.214;19.354;2023-02-20T13:14:21;97543.38;;;6.49;56.68
40285;BME280;25997;50.214;19.354;2023-02-20T13:17:42;97573.03;;;6.27;56.18
40285;BME280;25997;50.214;19.354;2023-02-20T13:20:50;97535.53;;;6.23;56.49
40285;BME280;25997;50.214;19.354;2023-02-20T13:24:27;97545.09;;;6.24;56.33
40285;BME280;25997;50.214;19.354;2023-02-20T13:27:32;97520.69;;;6.22;56.39
40285;BME280;25997;50.214;19.354;2023-02-20T13:30:37;97536.59;;;6.28;56.41
40285;BME280;25997;50.214;19.354;2023-02-20T13:33:48;97510.19;;;6.45;56.24
40285;BME280;25997;50.214;19.354;2023-02-20T13:36:54;97511.19;;;6.48;56.30
40285;BME280;25997;50.214;19.354;2023-02-20T13:40:34;97494.81;;;6.52;55.88
40285;BME280;25997;50.214;19.354;2023-02-20T13:43:39;97487.47;;;6.67;56.04
40285;BME280;25997;50.214;19.354;2023-02-20T13:46:59;97492.03;;;6.73;55.32
40285;BME280;25997;50.214;19.354;2023-02-20T13:50:30;97463.69;;;6.85;55.49
40285;BME280;25997;50.214;19.354;2023-02-20T13:53:35;97457.75;;;6.62;55.72
40285;BME280;25997;50.214;19.354;2023-02-20T13:56:46;97445.72;;;6.39;56.14
40285;BME280;25997;50.214;19.354;2023-02-20T13:59:54;97405.75;;;6.40;56.14
40285;BME280;25997;50.214;19.354;2023-02-20T14:02:59;97424.97;;;6.42;56.16
40285;BME280;25997;50.214;19.354;2023-02-20T14:06:10;97422.34;;;6.42;56.24
40285;BME280;25997;50.214;19.354;2023-02-20T14:09:19;97423.94;;;6.37;56.25
40285;BME280;25997;50.214;19.354;2023-02-20T14:12:26;97381.47;;;6.41;56.37
40285;BME280;25997;50.214;19.354;2023-02-20T14:15:33;97382.53;;;6.21;56.96
40285;BME280;25997;50.214;19.354;2023-02-20T14:18:47;97352.69;;;6.38;56.61
40285;BME280;25997;50.214;19.354;2023-02-20T14:21:56;97342.34;;;6.41;56.69
40285;BME280;25997;50.214;19.354;2023-02-20T14:25:23;97328.25;;;6.34;56.77
40285;BME280;25997;50.214;19.354;2023-02-20T14:28:33;97310.75;;;6.30;57.22
40285;BME280;25997;50.214;19.354;2023-02-20T14:31:40;97314.47;;;6.38;57.18
40285;BME280;25997;50.214;19.354;2023-02-20T14:34:52;97309.50;;;6.19;57.54
40285;BME280;25997;50.214;19.354;2023-02-20T14:38:10;97324.59;;;6.29;57.61
40285;BME280;25997;50.214;19.354;2023-02-20T14:41:20;97296.22;;;6.38;57.42
40285;BME280;25997;50.214;19.354;2023-02-20T14:44:27;97301.56;;;6.43;57.60
40285;BME280;25997;50.214;19.354;2023-02-20T14:47:49;97289.03;;;6.60;57.46
40285;BME280;25997;50.214;19.354;2023-02-20T14:51:13;97279.91;;;6.46;57.73
40285;BME280;25997;50.214;19.354;2023-02-20T14:54:22;97304.81;;;6.64;57.15
40285;BME280;25997;50.214;19.354;2023-02-20T14:57:31;97279.88;;;6.74;57.41
40285;BME280;25997;50.214;19.354;2023-02-20T15:00:39;97333.31;;;6.58;57.58
40285;BME280;25997;50.214;19.354;2023-02-20T15:03:57;97276.97;;;6.94;56.82
40285;BME280;25997;50.214;19.354;2023-02-20T15:07:06;97290.66;;;6.86;56.99
40285;BME280;25997;50.214;19.354;2023-02-20T15:13:45;97287.25;;;6.88;57.02
40285;BME280;25997;50.214;19.354;2023-02-20T15:17:07;97293.94;;;6.79;57.18
40285;BME280;25997;50.214;19.354;2023-02-20T15:20:28;97272.22;;;7.11;56.57
40285;BME280;25997;50.214;19.354;2023-02-20T15:23:41;97315.09;;;6.89;57.04
40285;BME280;25997;50.214;19.354;2023-02-20T15:26:47;97277.88;;;6.95;57.10
40285;BME280;25997;50.214;19.354;2023-02-20T15:30:13;97267.34;;;6.92;56.89
40285;BME280;25997;50.214;19.354;2023-02-20T15:33:20;97256.06;;;6.93;57.07
40285;BME280;25997;50.214;19.354;2023-02-20T15:36:25;97236.75;;;6.86;56.80
40285;BME280;25997;50.214;19.354;2023-02-20T15:39:38;97275.63;;;6.77;57.23
40285;BME280;25997;50.214;19.354;2023-02-20T15:42:45;97289.69;;;6.82;56.79
40285;BME280;25997;50.214;19.354;2023-02-20T15:45:53;97280.50;;;6.95;56.68
40285;BME280;25997;50.214;19.354;2023-02-20T15:48:58;97247.00;;;7.11;56.48
40285;BME280;25997;50.214;19.354;2023-02-20T15:52:12;97251.44;;;6.83;56.56
40285;BME280;25997;50.214;19.354;2023-02-20T15:55:22;97270.06;;;6.95;56.36
40285;BME280;25997;50.214;19.354;2023-02-20T15:58:31;97232.38;;;7.18;55.74
40285;BME280;25997;50.214;19.354;2023-02-20T16:01:40;97252.28;;;7.13;56.04
40285;BME280;25997;50.214;19.354;2023-02-20T16:04:46;97259.00;;;7.05;56.21
40285;BME280;25997;50.214;19.354;2023-02-20T16:07:54;97275.16;;;7.23;55.68
40285;BME280;25997;50.214;19.354;2023-02-20T16:11:00;97284.31;;;7.07;55.69
40285;BME280;25997;50.214;19.354;2023-02-20T16:14:05;97271.91;;;7.32;55.36
40285;BME280;25997;50.214;19.354;2023-02-20T16:17:20;97278.53;;;7.19;55.44
40285;BME280;25997;50.214;19.354;2023-02-20T16:20:28;97289.22;;;6.95;55.74
40285;BME280;25997;50.214;19.354;2023-02-20T16:23:34;97265.75;;;7.30;55.12
40285;BME280;25997;50.214;19.354;2023-02-20T16:26:46;97297.66;;;7.51;54.53
40285;BME280;25997;50.214;19.354;2023-02-20T16:29:54;97286.47;;;7.56;54.75
40285;BME280;25997;50.214;19.354;2023-02-20T16:33:10;97299.66;;;7.61;54.05
40285;BME280;25997;50.214;19.354;2023-02-20T16:36:17;97311.34;;;7.42;54.51
40285;BME280;25997;50.214;19.354;2023-02-20T16:39:23;97302.16;;;7.56;54.51
40285;BME280;25997;50.214;19.354;2023-02-20T16:42:31;97309.78;;;7.81;53.84
40285;BME280;25997;50.214;19.354;2023-02-20T16:45:39;97305.75;;;7.61;54.14
40285;BME280;25997;50.214;19.354;2023-02-20T16:48:46;97306.25;;;7.47;54.20
40285;BME280;25997;50.214;19.354;2023-02-20T16:51:53;97330.72;;;7.50;53.92
40285;BME280;25997;50.214;19.354;2023-02-20T16:55:04;97336.09;;;7.56;53.73
40285;BME280;25997;50.214;19.354;2023-02-20T16:58:12;97331.78;;;7.57;53.86
40285;BME280;25997;50.214;19.354;2023-02-20T17:01:19;97316.28;;;7.64;53.74
40285;BME280;25997;50.214;19.354;2023-02-20T17:04:26;97308.81;;;7.78;53.47